Archival Weather

Granbury Rgnl

Granbury, Texas (KGDJ)

Report from: Monday, January 29, 2024 2:55 AM UTC
Current time: Tuesday, June 18, 2024 11:42 AM UTC

Current weather – Weather history – Daily summaries
Weather forecast

Temperature6.7°C (44.1°F)
Dew point2.5°C (36.5°F)
Winds Calm
Visibility10 mi. (16.1 km)
Clouds Sky clear
Altimeter30.37 in.Hg (1028 mB)
Relative humidity75 %
Density altitude-1,404 ft. (-428 m)
Remarks Fully automated report
Automated weather observing station with precipitation discriminator
Flight conditions Visual Meteorological Conditions
Raw dataKGDJ 290255Z AUTO 00000KT 10SM CLR 07/03 A3037 RMK AO2 T00670025
An error has occurred. This application may no longer respond until reloaded. Reload 🗙